Time;durP1;ratioP1;P1;durP2;ratioP2;P2;SDS_P1;SDS_P2;PMS_P1;PMS_P2;Temp;Humidity;BMP_temperature;BMP_pressure;BME280_temperature;BME280_humidity;BME280_pressure;Samples;Min_cycle;Max_cycle;Signal;HPM_P1;HPM_P2
2023/06/21 00:00:13;;;;;;;341.10;197.43;;;;;;;21.92;80.26;99683.16;328716;30;2455;-82
2023/06/21 00:00:24;;;;;;;332.70;192.77;;;;;;;21.93;80.15;99690.16;321269;30;2966;-82
2023/06/21 00:00:34;;;;;;;334.27;193.90;;;;;;;21.92;79.95;99683.16;323261;30;1141;-82
2023/06/21 00:00:45;;;;;;;338.55;199.63;;;;;;;21.91;80.14;99682.31;324615;30;3270;-82
2023/06/21 00:00:55;;;;;;;342.20;201.97;;;;;;;21.90;80.11;99685.94;323812;30;3018;-82
2023/06/21 00:01:06;;;;;;;336.73;195.93;;;;;;;21.89;79.87;99692.25;324469;30;1226;-82
2023/06/21 00:01:16;;;;;;;334.07;193.07;;;;;;;21.90;80.18;99685.09;325288;30;2115;-82
2023/06/21 00:01:27;;;;;;;335.95;195.10;;;;;;;21.90;79.97;99685.09;323376;30;2292;-82
2023/06/21 00:01:38;;;;;;;340.53;200.23;;;;;;;21.90;80.18;99685.09;320291;30;2596;-82
2023/06/21 00:01:49;;;;;;;340.63;201.07;;;;;;;21.90;79.90;99680.63;319658;30;1543;-82
2023/06/21 00:02:00;;;;;;;338.02;198.40;;;;;;;21.90;79.98;99688.63;317364;30;2865;-82
2023/06/21 00:02:10;;;;;;;340.13;196.03;;;;;;;21.90;79.94;99690.44;318074;30;3496;-82
2023/06/21 00:02:21;;;;;;;349.83;197.68;;;;;;;21.90;79.62;99685.09;317349;31;1310;-82
2023/06/21 00:02:31;;;;;;;352.37;197.10;;;;;;;21.88;79.62;99681.72;317123;30;3635;-82
2023/06/21 00:02:44;;;;;;;342.70;193.00;;;;;;;21.89;79.79;99683.41;315678;31;3786;-82
2023/06/21 00:02:55;;;;;;;330.60;188.48;;;;;;;21.86;79.61;99683.69;314721;31;3957;-82
2023/06/21 00:03:05;;;;;;;332.03;189.47;;;;;;;21.88;79.56;99685.25;315177;31;1270;-82
2023/06/21 00:03:17;;;;;;;345.30;196.18;;;;;;;21.86;79.80;99684.53;312213;31;3861;-82
2023/06/21 00:03:27;;;;;;;346.67;194.65;;;;;;;21.83;79.87;99678.63;311496;31;2694;-82
2023/06/21 00:03:37;;;;;;;344.08;191.85;;;;;;;21.84;79.87;99686.47;310200;31;2900;-82
2023/06/21 00:03:48;;;;;;;337.23;190.00;;;;;;;21.82;79.96;99679.59;307438;32;1425;-82
2023/06/21 00:03:59;;;;;;;339.45;193.02;;;;;;;21.83;80.32;99683.94;305425;31;3757;-82
2023/06/21 00:04:09;;;;;;;344.90;196.43;;;;;;;21.82;80.08;99683.09;305781;31;4441;-82
2023/06/21 00:04:20;;;;;;;347.02;196.07;;;;;;;21.81;80.37;99678.75;307448;32;1058;-82
2023/06/21 00:04:30;;;;;;;348.80;196.07;;;;;;;21.82;79.99;99680.44;305395;32;5067;-82
2023/06/21 00:04:40;;;;;;;342.95;192.35;;;;;;;21.83;79.73;99678.63;304720;32;4814;-82
2023/06/21 00:04:55;;;;;;;341.30;194.67;;;;;;;21.83;80.33;99678.63;303171;32;1233;-82
2023/06/21 00:05:07;;;;;;;333.90;192.20;;;;;;;21.81;80.07;99675.25;299132;33;814;-82
2023/06/21 00:05:17;;;;;;;334.75;191.55;;;;;;;21.83;80.22;99681.28;292995;33;1319;-82
2023/06/21 00:05:28;;;;;;;332.83;190.13;;;;;;;21.83;80.43;99675.94;295081;33;5158;-82
2023/06/21 00:05:38;;;;;;;334.17;193.00;;;;;;;21.84;80.13;99672.31;295877;32;3871;-82
2023/06/21 00:05:49;;;;;;;340.53;198.70;;;;;;;21.82;79.95;99676.94;300131;32;1593;-82
2023/06/21 00:05:59;;;;;;;345.10;201.23;;;;;;;21.83;80.39;99678.63;294662;33;4448;-82
2023/06/21 00:06:09;;;;;;;345.85;201.65;;;;;;;21.85;79.80;99676.66;290772;33;5544;-82
2023/06/21 00:06:20;;;;;;;340.07;198.80;;;;;;;21.84;80.37;99680.31;291637;33;2552;-82
2023/06/21 00:06:30;;;;;;;334.70;196.23;;;;;;;21.84;79.97;99680.31;289865;33;6020;-82
2023/06/21 00:06:44;;;;;;;340.47;198.40;;;;;;;21.82;80.49;99676.94;287197;34;6710;-82
2023/06/21 00:06:55;;;;;;;343.90;196.90;;;;;;;21.82;80.32;99682.25;283672;34;7457;-82
2023/06/21 00:07:07;;;;;;;340.42;195.27;;;;;;;21.81;80.42;99684.06;283648;34;1437;-82
2023/06/21 00:07:23;;;;;;;336.08;193.25;;;;;;;21.80;80.14;99682.38;281123;35;1409;-82
2023/06/21 00:07:33;;;;;;;338.92;195.43;;;;;;;21.81;80.12;99677.91;283633;34;1222;-82
2023/06/21 00:07:44;;;;;;;338.57;197.37;;;;;;;21.82;80.41;99684.91;280916;34;7346;-82
2023/06/21 00:07:55;;;;;;;336.08;196.23;;;;;;;21.83;79.95;99683.94;278851;35;5511;-82
2023/06/21 00:08:05;;;;;;;335.05;196.18;;;;;;;21.82;80.60;99677.78;278339;35;1411;-82
2023/06/21 00:10:35;;;;;;;317.38;171.64;;;;;;;21.83;80.62;99683.94;2461900;27;20576;-81
2023/06/21 00:10:46;;;;;;;322.60;181.53;;;;;;;21.83;80.60;99683.94;346045;28;1118;-81
2023/06/21 00:10:57;;;;;;;331.58;188.55;;;;;;;21.83;80.65;99686.59;343527;28;1236;-81
2023/06/21 00:11:07;;;;;;;337.10;191.13;;;;;;;21.84;80.55;99685.63;342106;28;1300;-81
2023/06/21 00:11:17;;;;;;;338.50;191.07;;;;;;;21.80;80.62;99685.06;343528;28;1245;-81
2023/06/21 00:11:29;;;;;;;337.20;188.77;;;;;;;21.81;80.52;99685.91;344898;28;1386;-81
2023/06/21 00:11:41;;;;;;;338.20;189.25;;;;;;;21.81;80.44;99691.22;343523;28;1406;-81
2023/06/21 00:11:52;;;;;;;339.13;189.05;;;;;;;21.80;80.33;99689.53;343545;28;880;-81
2023/06/21 00:12:02;;;;;;;338.20;188.43;;;;;;;21.80;80.14;99689.53;347086;28;1239;-81
2023/06/21 00:12:13;;;;;;;332.83;184.45;;;;;;;21.78;80.66;99687.00;347331;28;1360;-81
2023/06/21 00:12:25;;;;;;;332.90;185.50;;;;;;;21.79;80.91;99690.50;346104;28;1201;-81
2023/06/21 00:12:35;;;;;;;334.48;185.63;;;;;;;21.76;80.90;99683.63;341111;29;1447;-81
2023/06/21 00:12:46;;;;;;;335.48;186.73;;;;;;;21.78;80.69;99686.16;341610;28;1349;-81
2023/06/21 00:12:57;;;;;;;335.83;186.30;;;;;;;21.77;80.80;99689.81;342025;28;1198;-81
2023/06/21 00:13:08;;;;;;;331.05;187.13;;;;;;;21.76;80.89;99688.94;340730;28;1236;-81
2023/06/21 00:13:18;;;;;;;330.75;187.63;;;;;;;21.74;80.83;99684.72;343457;28;1341;-81
2023/06/21 00:13:29;;;;;;;338.40;191.00;;;;;;;21.75;80.99;99686.41;340840;29;1293;-81
2023/06/21 00:13:39;;;;;;;337.57;188.87;;;;;;;21.74;80.87;99684.72;339471;29;1214;-81
2023/06/21 00:13:52;;;;;;;336.35;189.93;;;;;;;21.73;81.32;99686.56;339450;29;1220;-81
2023/06/21 00:14:03;;;;;;;328.40;184.90;;;;;;;21.73;81.34;99689.22;340574;29;1522;-81
2023/06/21 00:14:13;;;;;;;331.33;184.93;;;;;;;21.72;81.34;99686.69;340662;28;1194;-81
2023/06/21 00:14:23;;;;;;;331.77;185.70;;;;;;;21.68;81.47;99677.25;343759;28;1154;-81
2023/06/21 00:14:34;;;;;;;336.07;187.93;;;;;;;21.67;81.87;99683.56;343522;28;1182;-81
2023/06/21 00:14:44;;;;;;;333.92;187.05;;;;;;;21.64;81.70;99684.69;339452;29;1421;-81
2023/06/21 00:14:55;;;;;;;334.40;187.40;;;;;;;21.64;81.62;99683.84;342109;28;1235;-81
2023/06/21 00:15:06;;;;;;;336.43;188.90;;;;;;;21.63;81.82;99688.34;343663;28;844;-81
2023/06/21 00:15:17;;;;;;;336.73;188.18;;;;;;;21.63;81.80;99684.84;340959;29;1040;-81
2023/06/21 00:15:27;;;;;;;335.30;185.67;;;;;;;21.62;81.85;99683.16;339435;29;1231;-81
2023/06/21 00:15:38;;;;;;;331.42;181.27;;;;;;;21.62;81.81;99677.81;339474;29;1294;-81
2023/06/21 00:15:50;;;;;;;335.20;182.70;;;;;;;21.62;81.60;99681.31;339490;29;1179;-81
2023/06/21 00:16:00;;;;;;;342.85;187.05;;;;;;;21.65;81.68;99682.88;336861;29;1465;-81
2023/06/21 00:16:13;;;;;;;342.83;189.20;;;;;;;21.66;81.81;99677.41;339721;28;1354;-81
2023/06/21 00:16:24;;;;;;;335.77;185.65;;;;;;;21.65;81.76;99680.22;341841;28;1296;-81
2023/06/21 00:16:34;;;;;;;331.70;184.32;;;;;;;21.63;81.84;99676.84;339462;29;1333;-81
2023/06/21 00:16:46;;;;;;;332.47;182.97;;;;;;;21.66;81.66;99679.25;336291;29;1200;-81
2023/06/21 00:16:56;;;;;;;335.58;185.45;;;;;;;21.65;81.89;99680.22;337973;29;1302;-81
2023/06/21 00:17:06;;;;;;;331.98;184.07;;;;;;;21.65;81.76;99681.06;335735;29;1239;-81
2023/06/21 00:17:17;;;;;;;331.20;184.80;;;;;;;21.68;81.45;99679.94;336131;29;1282;-81
2023/06/21 00:17:27;;;;;;;331.58;185.48;;;;;;;21.69;81.60;99681.63;334241;29;1338;-81
2023/06/21 00:17:38;;;;;;;333.27;185.23;;;;;;;21.70;81.35;99678.81;335608;29;1298;-81
2023/06/21 00:17:48;;;;;;;332.30;184.52;;;;;;;21.71;81.39;99679.66;334740;29;1157;-81
2023/06/21 00:17:59;;;;;;;332.50;184.93;;;;;;;21.71;81.35;99674.34;332668;29;1329;-81
2023/06/21 00:18:09;;;;;;;331.13;182.00;;;;;;;21.72;81.63;99673.38;335491;29;1326;-81
2023/06/21 00:18:19;;;;;;;334.90;184.30;;;;;;;21.71;81.43;99682.31;333116;29;800;-81
2023/06/21 00:18:30;;;;;;;338.97;184.37;;;;;;;21.70;81.41;99675.31;331332;29;1309;-81
2023/06/21 00:18:43;;;;;;;340.30;185.82;;;;;;;21.73;81.13;99678.56;329223;29;1646;-81
2023/06/21 00:18:53;;;;;;;337.55;187.00;;;;;;;21.73;81.37;99672.38;329290;29;914;-81
2023/06/21 00:19:04;;;;;;;336.10;185.20;;;;;;;21.72;81.18;99673.38;328008;30;1380;-81
2023/06/21 00:19:14;;;;;;;337.05;183.82;;;;;;;21.74;81.35;99674.06;329797;29;1614;-82
2023/06/21 00:19:25;;;;;;;340.05;182.13;;;;;;;21.73;81.29;99677.72;327854;30;1912;-82
2023/06/21 00:19:35;;;;;;;340.07;185.33;;;;;;;21.72;81.25;99676.88;325539;30;1292;-82
2023/06/21 00:19:47;;;;;;;342.53;188.00;;;;;;;21.74;81.28;99674.91;328290;30;1271;-82
2023/06/21 00:19:57;;;;;;;340.95;188.63;;;;;;;21.75;80.92;99675.75;328009;30;1495;-82
2023/06/21 00:20:10;;;;;;;340.70;187.63;;;;;;;21.74;81.24;99674.06;326906;30;1331;-82
2023/06/21 00:20:21;;;;;;;331.30;185.10;;;;;;;21.73;81.35;99673.22;328204;30;974;-81
2023/06/21 00:20:31;;;;;;;331.98;187.00;;;;;;;21.72;81.33;99678.69;327224;30;1237;-81
2023/06/21 00:20:41;;;;;;;337.80;189.57;;;;;;;21.72;80.90;99684.03;323920;30;2040;-81
2023/06/21 00:20:52;;;;;;;341.00;191.95;;;;;;;21.71;81.20;99679.66;322075;30;1292;-81
2023/06/21 00:21:02;;;;;;;337.37;188.27;;;;;;;21.70;80.89;99678.81;326039;30;1614;-81
2023/06/21 00:21:13;;;;;;;327.90;184.13;;;;;;;21.70;81.02;99673.50;326222;30;1515;-81
2023/06/21 00:21:24;;;;;;;326.63;185.18;;;;;;;21.71;81.13;99679.66;324383;30;1303;-81
2023/06/21 00:21:34;;;;;;;334.17;189.13;;;;;;;21.71;81.06;99677.00;320695;30;2036;-81
2023/06/21 00:21:46;;;;;;;336.33;189.60;;;;;;;21.71;81.13;99672.50;321390;30;1631;-81
2023/06/21 00:21:57;;;;;;;336.40;189.23;;;;;;;21.71;80.88;99674.34;323510;30;959;-81
2023/06/21 00:22:07;;;;;;;333.15;186.95;;;;;;;21.71;80.95;99674.34;322077;30;1415;-81
2023/06/21 00:22:21;;;;;;;332.52;185.30;;;;;;;21.69;80.93;99673.63;320508;30;1067;-81
2023/06/21 00:22:33;;;;;;;335.00;185.27;;;;;;;21.68;81.15;99680.78;318924;30;1503;-81
2023/06/21 00:22:47;;;;;;;338.55;187.93;;;;;;;21.67;81.21;99675.56;318254;30;1809;-81
2023/06/21 00:22:57;;;;;;;333.45;187.68;;;;;;;21.69;81.12;99678.94;315418;31;1979;-81
2023/06/21 00:23:08;;;;;;;335.45;189.75;;;;;;;21.69;81.36;99681.63;314363;31;1322;-81
2023/06/21 00:23:18;;;;;;;338.70;190.03;;;;;;;21.68;81.13;99682.59;312175;31;2151;-81
2023/06/21 00:23:29;;;;;;;340.42;190.73;;;;;;;21.66;81.12;99672.06;311770;31;2026;-81
2023/06/21 00:23:43;;;;;;;338.37;189.47;;;;;;;21.68;81.16;99679.94;309615;31;1220;-81
2023/06/21 00:23:56;;;;;;;335.23;189.90;;;;;;;21.67;81.27;99680.91;311901;31;816;-81
2023/06/21 00:24:07;;;;;;;335.30;189.20;;;;;;;21.67;81.14;99672.91;305348;32;950;-81
2023/06/21 00:24:18;;;;;;;335.05;187.45;;;;;;;21.67;80.94;99678.25;305694;32;1444;-81
2023/06/21 00:24:28;;;;;;;336.27;188.70;;;;;;;21.67;81.26;99676.41;306094;32;1726;-81
2023/06/21 00:24:38;;;;;;;337.00;189.20;;;;;;;21.67;81.32;99678.25;304350;32;2735;-82
2023/06/21 00:24:49;;;;;;;341.57;190.27;;;;;;;21.68;81.17;99679.94;298480;32;2369;-82
2023/06/21 00:24:59;;;;;;;347.95;193.57;;;;;;;21.68;80.97;99677.25;297158;32;2904;-82
2023/06/21 00:25:10;;;;;;;348.00;194.57;;;;;;;21.69;81.10;99681.63;294465;32;3137;-82
2023/06/21 00:25:20;;;;;;;340.97;193.97;;;;;;;21.67;81.00;99678.25;295109;33;1206;-82
2023/06/21 00:25:31;;;;;;;336.27;191.00;;;;;;;21.71;80.84;99679.66;289193;33;3151;-82
2023/06/21 00:25:41;;;;;;;337.67;189.23;;;;;;;21.70;81.07;99675.31;289432;33;2674;-81
2023/06/21 00:25:51;;;;;;;342.20;189.75;;;;;;;21.69;81.05;99682.47;292163;33;1246;-81
2023/06/21 00:26:02;;;;;;;341.97;189.47;;;;;;;21.70;81.32;99683.31;294562;33;3108;-81
2023/06/21 00:26:12;;;;;;;337.77;190.02;;;;;;;21.70;81.16;99680.63;294332;33;2542;-81
2023/06/21 00:26:23;;;;;;;335.33;190.10;;;;;;;21.71;81.04;99679.66;293913;33;1207;-82
2023/06/21 00:26:33;;;;;;;336.83;189.97;;;;;;;21.70;80.99;99685.97;294083;33;1944;-82
2023/06/21 00:26:45;;;;;;;346.58;192.50;;;;;;;21.69;81.10;99676.28;293174;33;2852;-82
2023/06/21 00:26:56;;;;;;;345.33;190.65;;;;;;;21.69;81.31;99681.63;289668;33;3011;-82
2023/06/21 00:27:06;;;;;;;343.25;191.35;;;;;;;21.70;80.99;99685.97;288322;34;1340;-82
2023/06/21 00:27:17;;;;;;;338.60;191.77;;;;;;;21.69;81.08;99681.63;284531;34;3836;-82
2023/06/21 00:27:28;;;;;;;345.92;194.65;;;;;;;21.68;81.15;99679.94;283223;34;4695;-81
2023/06/21 00:27:39;;;;;;;344.30;193.15;;;;;;;21.69;81.19;99678.94;283709;34;1361;-81
2023/06/21 00:27:49;;;;;;;340.83;189.90;;;;;;;21.68;80.64;99675.44;279283;35;4126;-81
2023/06/21 00:28:00;;;;;;;331.37;186.13;;;;;;;21.67;80.68;99679.09;276817;35;4109;-81
2023/06/21 00:28:10;;;;;;;331.35;188.43;;;;;;;21.68;80.86;99679.94;274032;35;4100;-81
2023/06/21 00:28:21;;;;;;;338.80;192.70;;;;;;;21.66;80.98;99681.91;272483;36;1213;-81
2023/06/21 00:28:31;;;;;;;340.85;195.15;;;;;;;21.65;81.29;99677.56;272020;36;3961;-81
2023/06/21 00:28:41;;;;;;;342.87;194.17;;;;;;;21.66;81.27;99681.91;270277;36;3044;-81
2023/06/21 00:28:52;;;;;;;340.70;193.40;;;;;;;21.65;81.24;99674.88;268057;36;1187;-81
2023/06/21 00:29:03;;;;;;;344.27;193.83;;;;;;;21.66;80.72;99687.22;267603;36;4080;-81
2023/06/21 00:29:13;;;;;;;348.55;193.88;;;;;;;21.63;80.98;99677.69;264172;36;5093;-81
2023/06/21 00:29:24;;;;;;;349.40;193.53;;;;;;;21.64;81.19;99683.84;263101;37;3820;-81
2023/06/21 00:29:35;;;;;;;343.38;190.95;;;;;;;21.64;80.78;99678.53;262857;37;5798;-81
2023/06/21 00:31:17;;;;;;;320.29;170.27;;;;;;;21.61;80.97;99679.63;2503558;27;20498;-80
2023/06/21 00:31:28;;;;;;;327.83;181.07;;;;;;;21.60;81.26;99677.09;352475;27;1368;-80
2023/06/21 00:31:38;;;;;;;334.23;184.60;;;;;;;21.60;80.92;99677.09;347444;28;1267;-80
2023/06/21 00:31:49;;;;;;;341.83;188.05;;;;;;;21.59;80.96;99676.25;346350;28;793;-80
2023/06/21 00:31:59;;;;;;;341.67;187.03;;;;;;;21.60;81.02;99682.44;347504;28;1404;-80
2023/06/21 00:32:10;;;;;;;335.75;183.80;;;;;;;21.58;81.21;99679.91;350305;28;1214;-80
2023/06/21 00:32:20;;;;;;;331.35;181.82;;;;;;;21.57;80.88;99689.72;348967;28;1306;-80
2023/06/21 00:32:31;;;;;;;336.70;185.53;;;;;;;21.57;81.02;99681.72;350275;28;1337;-80
2023/06/21 00:32:41;;;;;;;336.05;186.95;;;;;;;21.56;81.33;99681.84;348908;28;1382;-82
2023/06/21 00:32:52;;;;;;;336.10;187.37;;;;;;;21.56;81.04;99687.16;347265;28;1473;-82
2023/06/21 00:33:02;;;;;;;330.17;183.87;;;;;;;21.54;81.20;99681.13;346259;28;1254;-82
2023/06/21 00:33:13;;;;;;;331.42;182.38;;;;;;;21.55;81.19;99681.00;345419;28;1233;-82
2023/06/21 00:33:23;;;;;;;336.33;182.55;;;;;;;21.54;81.11;99681.97;347701;28;1201;-82
2023/06/21 00:33:34;;;;;;;338.37;183.17;;;;;;;21.55;81.14;99690.81;349043;28;1331;-80
2023/06/21 00:33:45;;;;;;;338.42;184.77;;;;;;;21.54;81.41;99676.66;348623;28;2730;-81
2023/06/21 00:33:55;;;;;;;332.60;182.02;;;;;;;21.54;81.12;99678.47;346027;28;1252;-81
2023/06/21 00:34:06;;;;;;;333.80;181.70;;;;;;;21.52;81.14;99681.25;347204;28;2841;-81
2023/06/21 00:34:16;;;;;;;343.73;186.38;;;;;;;21.55;80.98;99682.81;345969;28;1315;-80
2023/06/21 00:34:26;;;;;;;346.93;190.57;;;;;;;21.55;81.11;99685.47;346682;28;2806;-81
2023/06/21 00:34:37;;;;;;;347.90;191.90;;;;;;;21.54;81.33;99679.31;347377;28;1208;-81
2023/06/21 00:34:47;;;;;;;337.47;185.07;;;;;;;21.55;81.34;99686.31;346083;28;1436;-81
2023/06/21 00:34:58;;;;;;;335.30;182.37;;;;;;;21.56;80.69;99680.03;346122;28;1212;-81
2023/06/21 00:35:08;;;;;;;335.67;180.57;;;;;;;21.56;80.75;99676.53;346151;28;1013;-81
2023/06/21 00:35:19;;;;;;;336.03;182.03;;;;;;;21.57;81.23;99686.19;344814;28;1333;-81
2023/06/21 00:35:29;;;;;;;339.38;184.02;;;;;;;21.57;80.73;99679.06;344694;28;1217;-81
2023/06/21 00:35:39;;;;;;;334.87;183.47;;;;;;;21.58;80.89;99675.41;347809;28;1210;-82
2023/06/21 00:35:50;;;;;;;334.35;181.38;;;;;;;21.60;81.07;99682.44;346227;28;817;-82
2023/06/21 00:36:02;;;;;;;340.60;184.97;;;;;;;21.61;80.91;99681.44;346009;28;1008;-82
2023/06/21 00:36:12;;;;;;;342.45;187.80;;;;;;;21.61;81.07;99673.47;345838;28;1401;-81
2023/06/21 00:36:23;;;;;;;338.13;184.15;;;;;;;21.60;80.99;99677.09;347631;28;1288;-81
2023/06/21 00:36:36;;;;;;;335.50;182.63;;;;;;;21.57;81.08;99675.53;347418;28;1187;-81
2023/06/21 00:36:46;;;;;;;340.30;185.13;;;;;;;21.60;81.27;99682.44;346083;28;1471;-81
2023/06/21 00:36:57;;;;;;;343.50;187.30;;;;;;;21.57;81.08;99679.06;347016;28;1082;-81
2023/06/21 00:37:11;;;;;;;341.63;186.37;;;;;;;21.57;80.99;99679.06;346056;28;1179;-82
2023/06/21 00:37:21;;;;;;;334.05;183.57;;;;;;;21.57;80.93;99679.06;344637;28;880;-82
2023/06/21 00:37:32;;;;;;;328.38;177.23;;;;;;;21.58;80.59;99675.41;344908;28;1228;-82
2023/06/21 00:37:44;;;;;;;334.03;179.40;;;;;;;21.60;80.62;99693.09;342101;28;1331;-82
2023/06/21 00:37:55;;;;;;;336.70;179.82;;;;;;;21.61;80.56;99681.44;345576;28;1307;-82
2023/06/21 00:38:06;;;;;;;337.15;183.63;;;;;;;21.58;80.12;99678.06;344783;28;1033;-82
2023/06/21 00:38:16;;;;;;;330.98;181.05;;;;;;;21.61;80.24;99684.13;342151;28;1221;-82
2023/06/21 00:38:26;;;;;;;335.40;180.93;;;;;;;21.61;80.47;99678.78;343425;28;1368;-82
2023/06/21 00:38:37;;;;;;;340.90;182.68;;;;;;;21.61;80.29;99684.13;343548;28;973;-81
2023/06/21 00:38:47;;;;;;;341.87;182.77;;;;;;;21.58;79.81;99680.75;343415;28;1432;-81
2023/06/21 00:38:58;;;;;;;334.02;180.80;;;;;;;21.61;80.47;99684.13;343622;28;1233;-81
2023/06/21 00:39:09;;;;;;;333.03;179.53;;;;;;;21.60;80.10;99682.44;343523;28;1390;-81
2023/06/21 00:39:20;;;;;;;330.88;180.63;;;;;;;21.60;80.27;99682.44;344842;28;1428;-81
2023/06/21 00:39:30;;;;;;;331.20;181.03;;;;;;;21.57;80.47;99681.72;344719;28;969;-81
2023/06/21 00:39:41;;;;;;;331.95;183.25;;;;;;;21.58;80.12;99691.41;338344;29;1177;-81
2023/06/21 00:39:51;;;;;;;337.30;183.97;;;;;;;21.56;80.51;99688.00;335624;29;1322;-81
2023/06/21 00:40:07;;;;;;;339.00;184.55;;;;;;;21.54;80.55;99681.13;336905;29;1340;-81
2023/06/21 00:40:21;;;;;;;331.05;180.00;;;;;;;21.56;80.36;99677.38;336838;29;1528;-82
2023/06/21 00:40:32;;;;;;;329.52;180.13;;;;;;;21.56;80.37;99687.16;338241;29;1350;-82
2023/06/21 00:40:42;;;;;;;326.70;179.07;;;;;;;21.55;80.42;99673.00;338181;29;1177;-82
2023/06/21 00:40:53;;;;;;;326.95;179.38;;;;;;;21.56;80.13;99687.16;339377;29;1472;-82
2023/06/21 00:41:04;;;;;;;335.20;184.90;;;;;;;21.54;80.78;99684.63;335628;29;1257;-82
2023/06/21 00:41:15;;;;;;;338.77;186.38;;;;;;;21.54;80.54;99687.31;332635;29;1742;-82
2023/06/21 00:41:25;;;;;;;339.83;187.70;;;;;;;21.53;80.34;99684.78;336018;29;1283;-82
2023/06/21 00:41:36;;;;;;;336.55;185.57;;;;;;;21.53;80.96;99682.94;336984;29;1324;-82
2023/06/21 00:41:47;;;;;;;340.53;186.87;;;;;;;21.50;80.60;99683.22;333885;29;1657;-82
2023/06/21 00:41:57;;;;;;;342.48;186.38;;;;;;;21.51;80.64;99684.06;333201;29;1683;-82
2023/06/21 00:42:08;;;;;;;340.93;185.87;;;;;;;21.51;80.51;99684.91;329941;29;1707;-82
2023/06/21 00:42:18;;;;;;;337.65;184.40;;;;;;;21.52;80.89;99685.75;334444;29;989;-82
2023/06/21 00:42:29;;;;;;;334.60;182.37;;;;;;;21.51;80.71;99681.38;330593;29;1575;-82
2023/06/21 00:42:39;;;;;;;337.38;183.70;;;;;;;21.51;80.60;99678.72;330737;29;1191;-82
2023/06/21 00:42:50;;;;;;;339.30;184.53;;;;;;;21.49;80.79;99684.19;329215;29;1299;-82
2023/06/21 00:43:00;;;;;;;336.63;182.55;;;;;;;21.49;80.60;99686.84;331317;29;1512;-82
2023/06/21 00:43:11;;;;;;;338.30;183.57;;;;;;;21.48;80.75;99689.63;331450;29;2766;-82
2023/06/21 00:43:21;;;;;;;336.17;184.13;;;;;;;21.48;80.73;99685.16;326868;30;1232;-82
2023/06/21 00:43:32;;;;;;;339.83;186.88;;;;;;;21.48;80.50;99682.50;320753;30;1445;-82
2023/06/21 00:43:42;;;;;;;341.93;186.10;;;;;;;21.46;80.89;99681.78;321796;30;1863;-82
2023/06/21 00:43:52;;;;;;;341.92;186.82;;;;;;;21.44;80.70;99683.72;321338;30;2400;-82
2023/06/21 00:44:03;;;;;;;339.60;186.40;;;;;;;21.40;80.82;99676.97;319826;30;818;-82
2023/06/21 00:44:13;;;;;;;336.30;187.43;;;;;;;21.41;80.84;99689.31;317947;30;2529;-81
2023/06/21 00:44:24;;;;;;;341.47;189.57;;;;;;;21.40;80.86;99682.28;317827;30;2455;-81
2023/06/21 00:44:37;;;;;;;341.35;189.02;;;;;;;21.40;81.04;99682.28;316303;31;1215;-81
2023/06/21 00:44:47;;;;;;;336.90;183.98;;;;;;;21.40;80.56;99687.63;316317;31;921;-81
2023/06/21 00:44:58;;;;;;;335.27;181.53;;;;;;;21.40;80.89;99687.63;315755;31;1612;-81
2023/06/21 00:45:08;;;;;;;336.98;184.23;;;;;;;21.42;81.10;99690.16;312826;31;2363;-81
2023/06/21 00:45:19;;;;;;;342.50;186.90;;;;;;;21.41;80.90;99683.13;312970;31;949;-81
2023/06/21 00:45:29;;;;;;;341.90;188.73;;;;;;;21.39;80.96;99683.28;313327;31;2397;-81
2023/06/21 00:45:45;;;;;;;344.30;189.10;;;;;;;21.39;80.77;99677.94;313050;31;3223;-81
2023/06/21 00:45:57;;;;;;;337.42;182.82;;;;;;;21.42;80.86;99680.34;319033;30;2547;-81
2023/06/21 00:46:07;;;;;;;340.88;183.93;;;;;;;21.44;80.70;99681.06;315886;31;3331;-81
2023/06/21 00:46:18;;;;;;;340.07;182.63;;;;;;;21.42;80.92;99680.34;313057;31;1231;-81
2023/06/21 00:46:29;;;;;;;342.17;185.38;;;;;;;21.46;80.68;99680.94;313399;31;3242;-81
2023/06/21 00:46:40;;;;;;;339.30;185.35;;;;;;;21.44;80.94;99683.72;314003;31;2729;-81
2023/06/21 00:46:50;;;;;;;338.30;185.97;;;;;;;21.42;81.01;99680.34;312141;31;1220;-81
2023/06/21 00:47:01;;;;;;;340.75;188.07;;;;;;;21.41;80.54;99681.31;311296;31;2336;-81
2023/06/21 00:47:12;;;;;;;342.07;186.50;;;;;;;21.41;80.80;99686.66;309502;31;2448;-81
2023/06/21 00:47:22;;;;;;;341.88;186.90;;;;;;;21.42;80.94;99690.16;309266;31;2863;-81
2023/06/21 00:47:32;;;;;;;336.73;184.23;;;;;;;21.42;80.98;99680.34;308598;32;1325;-81
2023/06/21 00:47:45;;;;;;;335.20;186.23;;;;;;;21.42;80.53;99685.66;306029;32;3297;-81
2023/06/21 00:47:57;;;;;;;338.50;188.45;;;;;;;21.42;80.86;99685.66;303420;32;3755;-81
2023/06/21 00:48:07;;;;;;;338.77;187.15;;;;;;;21.42;80.67;99688.34;301345;32;3607;-81
2023/06/21 00:48:18;;;;;;;334.33;182.73;;;;;;;21.42;80.49;99685.66;298120;33;1356;-81
2023/06/21 00:48:29;;;;;;;333.95;181.55;;;;;;;21.41;80.56;99689.31;296845;32;4278;-81
2023/06/21 00:48:39;;;;;;;339.35;184.40;;;;;;;21.42;80.74;99685.66;296167;32;4262;-81
2023/06/21 00:48:50;;;;;;;339.83;185.57;;;;;;;21.42;80.62;99690.16;296985;33;1255;-81
2023/06/21 00:49:00;;;;;;;340.33;187.10;;;;;;;21.42;80.48;99685.66;299147;32;3748;-81
2023/06/21 00:49:11;;;;;;;334.00;182.77;;;;;;;21.44;80.50;99683.72;299880;32;2810;-81
2023/06/21 00:49:21;;;;;;;337.33;184.30;;;;;;;21.44;80.58;99686.38;299285;33;1000;-81
2023/06/21 00:49:31;;;;;;;339.73;185.73;;;;;;;21.46;80.49;99692.44;299224;33;1146;-81
2023/06/21 00:49:42;;;;;;;343.43;189.27;;;;;;;;;;294506;33;4172;-81
2023/06/21 00:49:52;;;;;;;342.57;189.47;;;;;;;21.45;80.44;99690.75;290808;33;4603;-81
2023/06/21 00:50:03;;;;;;;336.88;187.45;;;;;;;21.44;80.58;99689.06;293130;33;895;-81
2023/06/21 00:50:13;;;;;;;334.07;187.23;;;;;;;21.46;80.20;99692.44;288768;33;5764;-81
2023/06/21 00:50:25;;;;;;;337.27;187.90;;;;;;;21.45;80.44;99690.75;288108;33;5653;-81
2023/06/21 00:50:38;;;;;;;339.70;188.43;;;;;;;21.45;80.32;99684.56;289200;34;1437;-81
2023/06/21 00:50:49;;;;;;;339.52;186.02;;;;;;;21.45;80.47;99684.56;288279;34;1379;-81
2023/06/21 00:50:59;;;;;;;334.80;183.63;;;;;;;21.46;80.70;99691.59;287295;34;6227;-81
2023/06/21 00:51:13;;;;;;;333.85;182.55;;;;;;;21.45;80.58;99690.75;286678;34;4858;-81
2023/06/21 00:51:24;;;;;;;331.65;182.25;;;;;;;21.45;80.13;99690.75;284962;34;3551;-81
2023/06/21 00:51:36;;;;;;;334.77;182.70;;;;;;;21.44;80.53;99691.72;284479;34;1402;-81
2023/06/21 00:51:47;;;;;;;343.95;188.70;;;;;;;21.42;80.57;99690.16;277981;35;1599;-81
2023/06/21 00:51:57;;;;;;;353.17;199.07;;;;;;;21.44;80.14;99689.06;277616;35;6187;-81
2023/06/21 00:52:07;;;;;;;350.65;196.57;;;;;;;21.43;80.58;99689.19;275478;35;7549;-84
2023/06/21 00:52:18;;;;;;;348.33;192.67;;;;;;;21.44;80.34;99694.38;272269;36;1595;-83
2023/06/21 00:52:28;;;;;;;342.75;187.18;;;;;;;21.45;80.40;99689.91;276317;35;8502;-82
2023/06/21 00:52:44;;;;;;;341.20;187.00;;;;;;;21.42;80.14;99685.66;275307;35;8373;-82
2023/06/21 00:52:55;;;;;;;340.00;186.82;;;;;;;;;;273387;35;8955;-82
2023/06/21 00:53:05;;;;;;;334.33;183.27;;;;;;;21.44;80.22;99697.03;273033;36;1252;-82
2023/06/21 00:53:16;;;;;;;337.33;184.17;;;;;;;;;;271865;35;8555;-82
2023/06/21 00:53:28;;;;;;;341.27;185.20;;;;;;;21.43;80.35;99691.84;271414;36;6851;-82
2023/06/21 00:53:40;;;;;;;343.50;187.77;;;;;;;21.42;80.16;99691.00;269386;36;5208;-82
2023/06/21 00:53:50;;;;;;;338.45;187.40;;;;;;;21.41;80.06;99683.97;266444;37;1523;-82
2023/06/21 00:54:01;;;;;;;340.43;188.73;;;;;;;21.42;80.19;99690.16;265037;36;6555;-82
2023/06/21 00:54:16;;;;;;;345.20;188.15;;;;;;;21.42;79.96;99685.66;262788;36;9135;-82